Time;durP1;ratioP1;P1;durP2;ratioP2;P2;SDS_P1;SDS_P2;PMS_P1;PMS_P2;Temp;Humidity;BMP_temperature;BMP_pressure;BME280_temperature;BME280_humidity;BME280_pressure;Samples;Min_cycle;Max_cycle;Signal;HPM_P1;HPM_P2
2021/12/15 00:00:44;;;;;;;54.17;31.48;;;;;;;2.28;70.20;100966.19;4468382;32;33887;-73
2021/12/15 00:03:15;;;;;;;53.13;29.60;;;;;;;2.39;69.92;100973.91;4468773;32;34093;-70
2021/12/15 00:05:45;;;;;;;54.13;30.75;;;;;;;2.38;69.55;100963.38;4469792;32;34245;-70
2021/12/15 00:08:13;;;;;;;54.63;30.90;;;;;;;2.34;69.99;100964.72;4470549;32;33976;-71
2021/12/15 00:10:42;;;;;;;50.95;30.30;;;;;;;2.94;67.77;100964.41;4470758;32;33659;-70
2021/12/15 00:13:12;;;;;;;50.72;30.10;;;;;;;2.65;68.95;100959.53;4470614;32;34836;-75
2021/12/15 00:15:40;;;;;;;51.45;29.17;;;;;;;2.88;68.47;100951.66;4470720;32;34208;-70
2021/12/15 00:18:08;;;;;;;52.30;29.83;;;;;;;2.52;69.25;100961.88;4470657;32;34310;-71
2021/12/15 00:20:35;;;;;;;61.55;34.70;;;;;;;2.54;69.49;100957.19;4470397;32;33902;-71
2021/12/15 00:23:04;;;;;;;64.10;34.55;;;;;;;2.68;68.86;100953.84;4470830;32;33973;-69
2021/12/15 00:25:34;;;;;;;71.80;36.42;;;;;;;2.65;69.11;100948.81;4469470;32;34245;-78
2021/12/15 00:28:02;;;;;;;73.03;38.80;;;;;;;2.63;69.17;100957.00;4470000;32;34174;-79
2021/12/15 00:30:31;;;;;;;66.57;35.17;;;;;;;2.93;68.33;100951.16;4470696;32;33885;-71
2021/12/15 00:32:58;;;;;;;64.50;35.58;;;;;;;2.84;67.83;100955.69;4470473;32;34132;-71
2021/12/15 00:35:26;;;;;;;77.68;39.47;;;;;;;2.52;68.85;100959.19;4469182;32;33944;-74
2021/12/15 00:37:54;;;;;;;82.35;36.67;;;;;;;2.29;70.09;100961.66;4470605;32;34925;-71
2021/12/15 00:40:24;;;;;;;75.60;37.08;;;;;;;2.42;68.90;100962.87;4470374;32;33944;-71
2021/12/15 00:42:52;;;;;;;66.12;35.05;;;;;;;2.54;67.95;100960.69;4469224;32;34121;-70
2021/12/15 00:45:20;;;;;;;70.12;36.53;;;;;;;2.04;69.85;100970.50;4470534;32;34167;-71
2021/12/15 00:47:47;;;;;;;68.53;36.83;;;;;;;1.59;72.47;100968.16;4470458;32;34258;-71
2021/12/15 00:50:17;;;;;;;58.17;32.03;;;;;;;2.07;70.76;100981.88;4470239;32;33784;-70
2021/12/15 00:52:46;;;;;;;56.28;32.25;;;;;;;1.96;71.47;100974.97;4469116;32;34941;-71
2021/12/15 00:55:18;;;;;;;60.03;32.67;;;;;;;2.53;69.19;100972.44;4470447;32;34990;-71
2021/12/15 00:57:46;;;;;;;62.30;32.75;;;;;;;2.33;69.28;100979.09;4469011;32;35021;-71
2021/12/15 01:00:36;;;;;;;56.95;32.50;;;;;;;2.25;69.52;100970.03;4469463;32;32513;-73
2021/12/15 01:03:06;;;;;;;8.15;4.35;;;;;;;2.54;68.73;100981.31;4470602;32;33595;-70
2021/12/15 01:05:36;;;;;;;57.97;31.98;;;;;;;2.55;68.20;100982.97;4469194;32;33639;-72
2021/12/15 01:08:08;;;;;;;58.17;33.13;;;;;;;1.95;70.67;100990.22;4470266;32;34197;-71
2021/12/15 01:10:56;;;;;;;61.53;35.03;;;;;;;1.64;72.43;100995.25;4469139;32;33538;-70
2021/12/15 01:21:45;;;;;;;47.92;28.55;;;;;;;1.42;72.63;100992.13;4470124;32;33747;-70
2021/12/15 01:24:14;;;;;;;49.95;26.35;;;;;;;1.53;72.72;100984.81;4470003;32;34125;-79
2021/12/15 01:26:42;;;;;;;54.50;28.85;;;;;;;2.39;69.46;100984.62;4470176;32;34013;-70
2021/12/15 01:29:10;;;;;;;47.72;26.77;;;;;;;2.06;69.95;100986.41;4469823;32;34861;-70
2021/12/15 01:31:37;;;;;;;48.05;28.48;;;;;;;1.89;70.34;100984.66;4468870;32;34520;-73
2021/12/15 01:34:05;;;;;;;55.35;30.17;;;;;;;1.40;72.30;100983.44;4470084;32;33743;-71
2021/12/15 01:36:32;;;;;;;48.30;27.02;;;;;;;1.18;72.87;100983.97;4469802;32;34972;-71
2021/12/15 01:39:00;;;;;;;41.63;24.73;;;;;;;1.44;71.21;100975.94;4470045;32;33604;-70
2021/12/15 01:41:27;;;;;;;39.13;23.17;;;;;;;1.58;70.22;100978.00;4468882;32;33517;-70
2021/12/15 01:49:39;;;;;;;44.65;25.50;;;;;;;1.63;70.37;100977.53;4470101;32;35044;-71
2021/12/15 01:52:17;;;;;;;47.65;27.00;;;;;;;1.87;68.95;100990.16;4469884;32;33559;-71
2021/12/15 01:54:50;;;;;;;48.35;26.60;;;;;;;1.52;70.57;100985.84;4470048;32;33880;-71
2021/12/15 01:57:18;;;;;;;48.60;26.45;;;;;;;1.56;70.22;100982.69;4470139;32;35163;-71
2021/12/15 01:59:48;;;;;;;47.15;25.52;;;;;;;0.94;72.48;100985.47;4469375;32;34273;-71
2021/12/15 02:02:16;;;;;;;43.25;24.90;;;;;;;0.93;73.02;100991.81;4468810;32;33694;-71
2021/12/15 02:04:44;;;;;;;47.62;25.62;;;;;;;1.17;72.12;100987.66;4469892;32;34073;-71
2021/12/15 02:07:16;;;;;;;47.38;27.52;;;;;;;1.32;71.19;100988.75;4469838;32;34123;-71
2021/12/15 02:12:25;;;;;;;50.78;26.20;;;;;;;0.74;73.69;100983.97;4469650;32;33817;-71
2021/12/15 02:14:53;;;;;;;46.30;24.85;;;;;;;1.15;71.99;100987.78;4469937;32;34047;-71
2021/12/15 02:17:21;;;;;;;46.88;25.70;;;;;;;0.86;73.23;100985.41;4469731;32;34157;-70
2021/12/15 02:19:49;;;;;;;48.63;25.62;;;;;;;0.86;73.17;100980.06;4469939;32;34221;-71
2021/12/15 02:22:17;;;;;;;44.90;25.70;;;;;;;0.78;74.14;100980.84;4455752;32;33866;-70
2021/12/15 02:24:48;;;;;;;49.55;26.42;;;;;;;0.60;74.63;100980.00;4469629;32;33829;-71
2021/12/15 02:27:15;;;;;;;42.97;24.73;;;;;;;0.72;74.46;100976.13;4469947;32;34325;-71
2021/12/15 02:29:46;;;;;;;40.25;23.65;;;;;;;0.76;73.64;100974.81;4468387;32;33923;-70
2021/12/15 02:32:34;;;;;;;43.28;22.67;;;;;;;0.61;74.83;100984.38;4469544;32;33572;-70
2021/12/15 02:37:48;;;;;;;37.67;19.55;;;;;;;0.48;76.39;100982.09;4468679;32;33814;-71
2021/12/15 02:40:17;;;;;;;33.78;19.37;;;;;;;1.01;73.96;100975.81;4468530;32;33854;-71
2021/12/15 02:42:47;;;;;;;2.10;1.90;;;;;;;1.39;72.86;100987.09;4469634;32;34580;-72
2021/12/15 02:45:18;;;;;;;33.53;19.42;;;;;;;1.28;73.38;100986.53;4469651;32;33987;-70
2021/12/15 02:47:47;;;;;;;32.92;19.73;;;;;;;1.20;73.54;100981.97;4468377;32;34290;-71
2021/12/15 02:50:19;;;;;;;34.78;18.85;;;;;;;1.46;72.70;100989.97;4468555;32;34286;-71
2021/12/15 02:52:46;;;;;;;34.20;19.40;;;;;;;1.71;71.94;100987.44;4469806;32;34673;-71
2021/12/15 02:55:15;;;;;;;38.72;20.50;;;;;;;1.92;70.86;100990.50;4469676;32;33964;-71
2021/12/15 02:57:47;;;;;;;37.30;20.85;;;;;;;1.72;71.54;100976.56;4469512;32;33830;-71
2021/12/15 03:00:18;;;;;;;31.90;19.48;;;;;;;1.33;72.52;100978.88;4469341;32;34344;-71
2021/12/15 03:05:23;;;;;;;4.15;3.03;;;;;;;0.83;74.89;100980.38;4469375;32;34736;-71
2021/12/15 03:16:10;;;;;;;35.58;19.50;;;;;;;1.87;70.34;100975.97;4469283;32;34714;-71
2021/12/15 03:18:38;;;;;;;35.03;20.05;;;;;;;1.95;70.50;100966.13;4468935;32;35096;-72
2021/12/15 03:21:12;;;;;;;33.70;19.77;;;;;;;1.85;71.04;100963.56;4469137;32;34852;-71
2021/12/15 03:23:53;;;;;;;36.53;20.50;;;;;;;1.53;72.18;100953.56;4469251;32;33793;-71
2021/12/15 03:26:27;;;;;;;33.85;19.48;;;;;;;1.91;70.81;100950.56;4469206;32;34910;-71
2021/12/15 03:37:21;;;;;;;34.63;20.20;;;;;;;1.88;70.64;100941.00;4469128;32;34104;-71
2021/12/15 03:39:54;;;;;;;34.97;20.73;;;;;;;1.57;71.92;100946.06;4470029;32;33740;-71
2021/12/15 03:42:29;;;;;;;35.92;19.35;;;;;;;2.04;70.52;100948.25;4474182;32;35013;-72
2021/12/15 03:44:58;;;;;;;35.20;20.60;;;;;;;1.74;71.28;100958.50;4474058;32;33531;-72
2021/12/15 03:47:30;;;;;;;33.28;19.05;;;;;;;2.36;69.12;100954.66;4474185;32;33943;-71
2021/12/15 03:50:06;;;;;;;6.57;2.95;;;;;;;2.54;68.34;100962.53;4473942;32;34427;-72
2021/12/15 03:52:34;;;;;;;35.25;19.95;;;;;;;3.00;67.07;100963.72;4474094;32;34909;-72
2021/12/15 03:55:03;;;;;;;35.97;19.67;;;;;;;2.52;68.21;100962.69;4474136;32;33785;-71
2021/12/15 03:57:31;;;;;;;35.42;20.92;;;;;;;2.05;69.59;100965.97;4473866;32;33805;-71
2021/12/15 03:59:58;;;;;;;32.13;18.23;;;;;;;1.82;70.34;100966.56;4474054;32;34248;-73
2021/12/15 04:02:26;;;;;;;34.22;19.48;;;;;;;2.47;67.99;100962.37;4473740;32;34169;-78
2021/12/15 04:04:54;;;;;;;32.90;19.62;;;;;;;2.51;67.70;100963.72;4472600;32;33637;-70
2021/12/15 04:07:22;;;;;;;32.13;19.60;;;;;;;2.81;66.24;100964.06;4473919;32;33909;-73
2021/12/15 04:09:50;;;;;;;32.45;19.95;;;;;;;2.78;66.24;100967.91;4473925;32;34242;-71
2021/12/15 04:12:19;;;;;;;32.28;19.62;;;;;;;2.88;65.30;100965.06;4473785;32;33697;-72
2021/12/15 04:14:55;;;;;;;35.85;19.77;;;;;;;2.24;67.28;100968.34;4473640;32;33947;-71
2021/12/15 04:17:26;;;;;;;32.92;19.00;;;;;;;2.61;66.24;100972.44;4473486;32;34039;-72
2021/12/15 04:19:56;;;;;;;29.20;19.08;;;;;;;2.49;66.63;100979.13;4467536;32;199943;-72
2021/12/15 04:22:25;;;;;;;34.22;19.23;;;;;;;2.20;67.65;100984.91;4473513;32;35028;-72
2021/12/15 04:24:54;;;;;;;32.80;20.50;;;;;;;2.49;66.85;100980.97;4473557;32;33826;-71
2021/12/15 04:27:21;;;;;;;32.78;18.95;;;;;;;2.37;66.83;100980.44;4472386;32;34692;-72
2021/12/15 04:29:52;;;;;;;33.00;19.77;;;;;;;2.85;64.98;100976.09;4473577;32;35068;-71
2021/12/15 04:32:33;;;;;;;34.88;20.12;;;;;;;2.87;64.55;100976.78;4473052;32;35007;-72
2021/12/15 04:35:01;;;;;;;33.95;20.12;;;;;;;1.95;67.44;100970.62;4473411;32;34580;-72
2021/12/15 04:37:28;;;;;;;3.33;3.12;;;;;;;1.41;69.28;100977.09;4473617;32;34069;-72
2021/12/15 04:39:55;;;;;;;37.53;21.45;;;;;;;1.55;69.28;100988.19;4473223;32;33932;-72
2021/12/15 04:42:25;;;;;;;36.95;21.17;;;;;;;1.62;68.69;100998.09;4473384;32;33993;-72
2021/12/15 04:44:56;;;;;;;35.40;21.83;;;;;;;1.59;69.64;100997.56;4472085;32;33862;-71
2021/12/15 04:47:25;;;;;;;37.78;21.50;;;;;;;1.61;69.72;100999.09;4472175;32;33962;-71
2021/12/15 04:49:54;;;;;;;38.72;20.83;;;;;;;1.78;69.24;100996.50;4473301;32;34409;-72
2021/12/15 04:52:25;;;;;;;39.33;21.83;;;;;;;2.26;67.58;100995.81;4470115;32;34213;-72
2021/12/15 04:54:53;;;;;;;35.95;21.35;;;;;;;1.73;69.07;100990.78;4470384;32;33758;-72
2021/12/15 04:57:21;;;;;;;40.67;22.65;;;;;;;1.66;69.47;100993.25;4470357;32;33702;-71
2021/12/15 04:59:49;;;;;;;37.42;21.60;;;;;;;1.43;70.26;100987.62;4470302;32;33888;-71
2021/12/15 05:02:19;;;;;;;40.67;23.12;;;;;;;0.82;73.04;101000.06;4470182;32;34334;-71
2021/12/15 05:04:48;;;;;;;39.15;21.77;;;;;;;1.45;70.80;101007.03;4470140;32;34439;-72
2021/12/15 05:07:16;;;;;;;38.20;22.85;;;;;;;1.56;70.35;101000.56;4470532;32;34873;-71
2021/12/15 05:09:44;;;;;;;41.85;22.30;;;;;;;1.77;69.73;100994.81;4469218;32;34075;-72
2021/12/15 05:12:12;;;;;;;38.78;22.27;;;;;;;1.86;69.20;101007.25;4470054;32;34971;-72
2021/12/15 05:14:39;;;;;;;40.35;23.45;;;;;;;1.52;70.47;101021.44;4470295;32;33667;-78
2021/12/15 05:17:07;;;;;;;2.15;1.95;;;;;;;1.48;70.80;101024.59;4470268;32;33727;-71
2021/12/15 05:19:34;;;;;;;40.08;22.05;;;;;;;2.18;68.86;101021.72;4470015;32;35168;-72
2021/12/15 05:22:04;;;;;;;36.25;21.67;;;;;;;2.02;68.86;101026.03;4470120;32;34035;-70
2021/12/15 05:24:34;;;;;;;3.15;2.53;;;;;;;1.83;69.36;101024.44;4470254;32;34682;-71
2021/12/15 05:27:11;;;;;;;36.97;21.83;;;;;;;2.09;68.70;101018.19;4468873;32;34704;-71
2021/12/15 05:29:40;;;;;;;39.90;21.67;;;;;;;1.78;69.41;101026.75;4470225;32;34306;-71
2021/12/15 05:32:09;;;;;;;3.80;2.70;;;;;;;1.77;69.45;101030.44;4469614;32;34864;-72
2021/12/15 05:34:38;;;;;;;39.30;22.73;;;;;;;1.85;69.32;101034.97;4470220;32;33557;-71
2021/12/15 05:37:06;;;;;;;39.17;22.70;;;;;;;1.52;70.35;101032.12;4476022;32;33984;-72
2021/12/15 05:39:34;;;;;;;39.55;22.77;;;;;;;1.59;70.24;101038.53;4485633;32;35119;-76
2021/12/15 05:42:02;;;;;;;40.58;22.27;;;;;;;1.79;69.96;101046.31;4473872;32;34970;-70
2021/12/15 05:44:30;;;;;;;39.67;23.55;;;;;;;2.41;66.60;101033.50;4471486;32;33868;-71
2021/12/15 05:47:00;;;;;;;46.65;25.02;;;;;;;1.94;68.12;101036.69;4485663;32;34054;-71
2021/12/15 05:49:27;;;;;;;47.05;27.95;;;;;;;1.58;69.16;101044.88;4484375;32;35238;-70
2021/12/15 05:51:56;;;;;;;43.38;24.55;;;;;;;1.47;69.89;101047.84;4485260;32;35019;-70
2021/12/15 05:54:24;;;;;;;52.25;27.25;;;;;;;1.56;69.52;101054.91;4485256;32;34857;-79
2021/12/15 05:56:52;;;;;;;52.35;29.83;;;;;;;1.93;68.39;101055.59;4485564;32;33969;-71
2021/12/15 05:59:20;;;;;;;48.28;27.20;;;;;;;1.49;69.95;101056.53;4485538;32;34139;-71
2021/12/15 06:01:47;;;;;;;43.25;24.55;;;;;;;1.50;69.91;101057.37;4485227;32;34169;-73
2021/12/15 06:04:15;;;;;;;44.85;26.48;;;;;;;1.54;70.01;101064.91;4485027;32;33744;-73
2021/12/15 06:06:43;;;;;;;58.17;33.35;;;;;;;1.20;72.22;101072.88;4485223;32;33953;-70
2021/12/15 06:09:12;;;;;;;49.40;29.83;;;;;;;1.19;71.57;101073.87;4484045;32;34948;-76
2021/12/15 06:11:41;;;;;;;59.53;31.80;;;;;;;1.10;71.89;101077.44;4484136;32;34197;-71
2021/12/15 06:14:08;;;;;;;6.22;4.35;;;;;;;0.92;73.01;101082.81;4485390;32;33854;-74
2021/12/15 06:16:37;;;;;;;57.92;33.08;;;;;;;1.35;71.80;101086.50;4485136;32;33383;-70
2021/12/15 06:19:04;;;;;;;2.05;1.55;;;;;;;1.58;70.91;101095.72;4485384;32;34318;-70
2021/12/15 06:21:32;;;;;;;65.97;35.92;;;;;;;1.44;71.43;101101.63;4484992;32;34101;-71
2021/12/15 06:24:00;;;;;;;62.60;33.83;;;;;;;0.99;72.75;101102.56;4485311;32;33571;-71
2021/12/15 06:26:27;;;;;;;8.68;3.92;;;;;;;0.21;76.17;101108.41;4484153;32;33840;-69
2021/12/15 06:28:55;;;;;;;48.42;26.00;;;;;;;0.51;75.68;101109.94;4485477;32;33877;-74
2021/12/15 06:31:23;;;;;;;43.78;24.90;;;;;;;0.62;74.79;101109.72;4485685;32;34273;-72
2021/12/15 06:33:51;;;;;;;45.15;25.60;;;;;;;0.71;74.46;101107.16;4485026;32;34476;-70
2021/12/15 06:36:21;;;;;;;44.03;25.10;;;;;;;0.69;74.52;101110.00;4484860;32;33667;-71
2021/12/15 06:38:51;;;;;;;48.33;26.52;;;;;;;0.88;73.90;101111.66;4485518;32;34274;-73
2021/12/15 06:41:21;;;;;;;3.58;2.65;;;;;;;0.80;74.34;101108.94;4485387;32;34081;-73
2021/12/15 06:43:54;;;;;;;46.37;26.35;;;;;;;1.19;73.22;101109.47;4482055;32;34494;-71
2021/12/15 06:46:57;;;;;;;14.80;5.80;;;;;;;1.19;72.93;101106.78;4480795;31;33475;-75
2021/12/15 07:00:30;;;;;;;43.78;25.37;;;;;;;1.83;71.35;101117.25;4482956;32;35004;-71
2021/12/15 07:02:58;;;;;;;47.08;28.70;;;;;;;1.38;72.65;101115.59;4483647;32;34097;-70
2021/12/15 07:05:27;;;;;;;66.85;46.05;;;;;;;1.36;72.70;101126.47;4483864;32;33832;-71
2021/12/15 07:07:56;;;;;;;42.97;24.87;;;;;;;1.47;72.50;101137.91;4482452;32;33896;-71
2021/12/15 07:10:28;;;;;;;50.00;29.35;;;;;;;1.67;71.74;101141.25;4481600;32;34115;-79
2021/12/15 07:12:58;;;;;;;3.00;2.35;;;;;;;1.38;73.12;101135.19;4482796;32;33665;-65
2021/12/15 07:15:27;;;;;;;43.63;26.40;;;;;;;2.36;68.43;101142.16;4480913;32;34121;-67
2021/12/15 07:18:01;;;;;;;48.05;26.73;;;;;;;2.55;67.30;101133.00;4483734;32;33891;-66
2021/12/15 07:20:39;;;;;;;50.30;27.30;;;;;;;1.93;69.17;101131.38;4483828;32;34346;-69
2021/12/15 07:23:09;;;;;;;42.58;25.73;;;;;;;1.80;70.14;101139.00;4483615;32;35084;-67
2021/12/15 07:25:38;;;;;;;2.28;1.95;;;;;;;1.91;70.43;101140.56;4483666;32;34465;-70
2021/12/15 07:28:06;;;;;;;41.10;25.23;;;;;;;2.71;68.21;101138.41;4483152;32;33922;-65
2021/12/15 07:30:35;;;;;;;44.53;25.60;;;;;;;2.46;68.74;101140.16;4483051;32;34893;-67
2021/12/15 07:33:04;;;;;;;3.47;2.58;;;;;;;2.58;68.71;101144.22;4482325;32;34512;-67
2021/12/15 07:35:32;;;;;;;46.65;24.05;;;;;;;2.90;67.89;101139.16;4483189;32;33691;-69
2021/12/15 07:38:00;;;;;;;45.70;24.87;;;;;;;3.20;66.90;101141.19;4483389;32;33877;-68
2021/12/15 07:40:28;;;;;;;43.05;23.35;;;;;;;3.13;66.96;101134.78;4483620;32;35226;-72
2021/12/15 07:45:35;;;;;;;38.65;21.95;;;;;;;3.50;65.83;101144.22;4482926;32;33419;-68
2021/12/15 07:48:04;;;;;;;41.05;23.48;;;;;;;3.33;66.07;101147.91;4483311;32;34499;-67
2021/12/15 07:50:32;;;;;;;7.10;2.45;;;;;;;3.09;67.18;101144.22;4482771;32;34992;-69
2021/12/15 07:53:00;;;;;;;45.47;23.38;;;;;;;3.67;65.75;101143.22;4483596;32;33830;-68
2021/12/15 07:55:27;;;;;;;42.62;23.92;;;;;;;3.31;67.10;101145.41;4482963;32;34596;-67
2021/12/15 07:57:55;;;;;;;2.53;1.85;;;;;;;2.68;69.40;101144.12;4483094;32;34721;-72
2021/12/15 08:00:24;;;;;;;40.72;23.42;;;;;;;3.05;69.49;101154.41;4482753;32;34144;-68
2021/12/15 08:02:52;;;;;;;2.17;1.65;;;;;;;3.25;68.94;101160.28;4482398;32;34198;-71
2021/12/15 08:05:22;;;;;;;42.25;22.73;;;;;;;3.10;69.28;101166.50;4482987;32;34314;-71
2021/12/15 08:07:49;;;;;;;2.85;1.85;;;;;;;2.96;70.21;101167.94;4483082;32;34067;-66
2021/12/15 08:10:19;;;;;;;1.65;1.40;;;;;;;2.89;71.26;101178.50;4483170;32;34012;-66
2021/12/15 08:12:46;;;;;;;43.95;23.10;;;;;;;3.35;69.80;101178.94;4480867;32;34970;-69
2021/12/15 08:15:16;;;;;;;46.47;24.73;;;;;;;3.26;69.74;101185.25;4482208;32;34364;-69
2021/12/15 08:17:48;;;;;;;58.65;27.10;;;;;;;3.48;69.60;101183.81;4482759;32;33440;-67
2021/12/15 08:20:15;;;;;;;50.50;25.12;;;;;;;2.94;71.40;101184.22;4482642;32;34809;-70
2021/12/15 08:22:43;;;;;;;45.95;24.33;;;;;;;2.95;71.75;101188.56;4480992;32;34821;-68
2021/12/15 08:25:14;;;;;;;40.85;21.42;;;;;;;2.94;72.39;101200.31;4481388;32;34582;-68
2021/12/15 08:27:42;;;;;;;40.05;21.15;;;;;;;2.98;72.46;101200.78;4483479;32;34612;-67
2021/12/15 08:30:14;;;;;;;37.13;21.62;;;;;;;3.09;72.07;101203.19;4483006;32;34001;-68
2021/12/15 08:32:42;;;;;;;40.53;20.30;;;;;;;2.45;74.63;101213.50;4483268;32;34724;-70
2021/12/15 08:35:09;;;;;;;40.38;22.27;;;;;;;2.81;73.54;101218.69;4484004;32;34191;-66
2021/12/15 08:37:37;;;;;;;47.45;23.05;;;;;;;3.41;71.35;101223.87;4484226;32;34378;-67
2021/12/15 08:40:05;;;;;;;11.25;3.80;;;;;;;3.99;69.34;101223.87;4484438;32;34156;-67
2021/12/15 08:42:32;;;;;;;44.80;23.48;;;;;;;3.87;69.77;101226.06;4479520;32;33949;-66
2021/12/15 08:45:00;;;;;;;42.00;21.95;;;;;;;3.87;69.92;101215.34;4468444;32;34992;-68
2021/12/15 08:47:28;;;;;;;41.47;22.85;;;;;;;4.14;68.86;101221.34;4468894;32;33406;-69
2021/12/15 08:49:56;;;;;;;42.92;22.92;;;;;;;3.74;69.75;101220.34;4468641;32;33990;-68
2021/12/15 08:52:24;;;;;;;41.72;21.87;;;;;;;3.99;69.31;101222.03;4468153;32;33781;-69
2021/12/15 08:54:51;;;;;;;39.55;21.80;;;;;;;4.27;68.56;101216.28;4468543;32;34560;-68
2021/12/15 08:57:19;;;;;;;2.58;2.37;;;;;;;3.84;69.91;101221.84;4468635;32;34720;-69
2021/12/15 08:59:46;;;;;;;44.50;23.62;;;;;;;3.55;71.64;101218.84;4468316;32;34836;-67
2021/12/15 09:02:13;;;;;;;42.40;23.48;;;;;;;3.48;72.19;101218.69;4468854;32;33699;-71
2021/12/15 09:04:41;;;;;;;46.67;23.42;;;;;;;3.61;72.07;101220.88;4472881;32;34877;-71
2021/12/15 09:07:09;;;;;;;40.40;23.65;;;;;;;3.72;71.38;101217.84;4483306;32;33844;-71
2021/12/15 09:09:36;;;;;;;49.35;28.10;;;;;;;3.86;71.59;101217.16;4484805;32;34323;-72
2021/12/15 09:12:04;;;;;;;44.72;26.08;;;;;;;3.47;73.42;101214.31;4484664;32;34036;-71
2021/12/15 09:14:32;;;;;;;49.10;26.42;;;;;;;3.83;72.51;101206.78;4484466;32;34753;-70
2021/12/15 09:17:00;;;;;;;44.65;24.00;;;;;;;4.19;71.60;101211.78;4484177;32;34008;-70
2021/12/15 09:19:28;;;;;;;50.20;26.23;;;;;;;4.22;70.91;101211.41;4484623;32;34193;-72
2021/12/15 09:21:57;;;;;;;41.37;22.83;;;;;;;4.05;71.74;101215.97;4483071;32;34068;-72
2021/12/15 09:24:25;;;;;;;53.05;27.87;;;;;;;4.19;71.87;101209.09;4484330;32;34552;-72
2021/12/15 09:26:53;;;;;;;47.42;24.52;;;;;;;4.26;72.15;101211.94;4484628;32;33927;-71
2021/12/15 09:29:21;;;;;;;37.05;22.27;;;;;;;4.41;71.84;101212.87;4482141;32;34196;-72
2021/12/15 09:31:49;;;;;;;40.80;22.45;;;;;;;4.51;70.39;101212.69;4484267;32;34999;-72
2021/12/15 09:34:18;;;;;;;46.47;24.00;;;;;;;5.10;68.56;101215.78;4483806;32;33856;-72
2021/12/15 09:36:47;;;;;;;40.63;23.02;;;;;;;4.96;69.18;101219.22;4483247;32;33454;-71
2021/12/15 09:39:17;;;;;;;42.53;23.67;;;;;;;5.07;68.92;101210.75;4484128;32;34789;-71
2021/12/15 09:41:45;;;;;;;41.28;22.95;;;;;;;5.44;68.33;101209.19;4483065;32;34888;-71
2021/12/15 09:44:15;;;;;;;42.80;24.63;;;;;;;4.92;69.78;101208.00;4484361;32;34382;-70
2021/12/15 10:01:54;;;;;;;42.15;23.42;;;;;;;4.48;71.31;101208.50;4484477;32;34724;-70
2021/12/15 10:19:32;;;;;;;34.00;20.45;;;;;;;7.26;62.58;101201.69;4484586;32;33755;-80
2021/12/15 10:22:05;;;;;;;30.52;18.65;;;;;;;7.43;61.64;101199.59;4484590;32;34102;-84
2021/12/15 10:24:46;;;;;;;29.40;18.30;;;;;;;7.19;61.49;101212.41;4484638;32;34081;-76
2021/12/15 10:27:31;;;;;;;29.80;18.85;;;;;;;6.83;63.33;101209.69;4483160;32;34718;-72
2021/12/15 10:30:23;;;;;;;35.60;19.17;;;;;;;6.25;64.35;101200.59;4484280;32;34006;-73
2021/12/15 10:33:04;;;;;;;29.67;17.33;;;;;;;6.62;64.44;101202.34;4483517;32;35160;-75
2021/12/15 10:35:36;;;;;;;30.20;17.98;;;;;;;7.12;61.38;101208.78;4483783;32;35252;-75
2021/12/15 10:38:27;;;;;;;28.00;18.05;;;;;;;6.12;64.80;101212.00;4484294;32;34346;-74
2021/12/15 10:41:12;;;;;;;31.02;17.45;;;;;;;7.03;62.36;101214.50;4483018;32;33014;-77
2021/12/15 10:43:39;;;;;;;30.45;18.08;;;;;;;7.44;61.23;101206.63;4483801;32;34229;-76
2021/12/15 10:46:23;;;;;;;29.63;17.73;;;;;;;7.36;61.65;101206.75;4484313;32;34149;-77
2021/12/15 10:49:21;;;;;;;29.67;18.65;;;;;;;6.29;64.51;101207.28;4466363;32;33914;-76
2021/12/15 10:52:10;;;;;;;28.40;17.65;;;;;;;7.30;61.38;101211.09;4467612;32;33628;-82
2021/12/15 10:54:46;;;;;;;28.45;17.27;;;;;;;6.66;63.67;101205.53;4468347;32;34271;-84
2021/12/15 10:57:16;;;;;;;29.92;18.48;;;;;;;6.80;62.34;101206.53;4468508;32;34988;-74
2021/12/15 10:59:51;;;;;;;30.88;18.08;;;;;;;6.85;62.66;101207.66;4468202;32;33443;-68
2021/12/15 11:02:37;;;;;;;33.50;19.05;;;;;;;6.72;63.26;101205.63;4468017;32;33546;-73
2021/12/15 11:05:23;;;;;;;31.92;18.30;;;;;;;6.73;63.21;101204.56;4468270;32;34996;-76
2021/12/15 11:07:56;;;;;;;33.17;18.65;;;;;;;6.76;63.39;101214.19;4468317;32;34209;-74
2021/12/15 11:10:32;;;;;;;28.73;18.12;;;;;;;6.90;62.45;101204.38;4468492;32;33539;-78
2021/12/15 11:13:04;;;;;;;30.00;17.67;;;;;;;6.96;62.52;101204.47;4468101;32;34805;-72
2021/12/15 11:15:39;;;;;;;29.10;17.62;;;;;;;7.24;61.37;101206.44;4468147;32;33989;-69
2021/12/15 11:18:16;;;;;;;29.67;17.55;;;;;;;6.55;63.93;101201.44;4468427;32;33779;-70
2021/12/15 11:20:50;;;;;;;28.00;17.45;;;;;;;8.09;60.12;101204.72;4467866;32;34308;-69
2021/12/15 11:23:22;;;;;;;29.40;17.77;;;;;;;8.72;57.81;101202.00;4467788;32;33448;-84
2021/12/15 11:25:55;;;;;;;26.75;16.73;;;;;;;8.82;57.11;101201.62;4479759;32;34594;-71
2021/12/15 11:28:25;;;;;;;25.75;16.20;;;;;;;8.11;57.75;101197.25;4467782;32;33955;-78
2021/12/15 11:31:06;;;;;;;27.90;16.42;;;;;;;7.54;60.10;101207.16;4468220;32;33629;-76
2021/12/15 11:33:48;;;;;;;27.42;16.92;;;;;;;7.38;59.83;101194.72;4466496;32;33937;-70
2021/12/15 11:36:25;;;;;;;26.85;15.73;;;;;;;7.91;58.79;101194.41;4467960;32;34746;-73
2021/12/15 11:39:12;;;;;;;28.67;17.42;;;;;;;8.36;58.69;101200.34;4468162;32;34359;-69
2021/12/15 11:41:42;;;;;;;27.27;16.90;;;;;;;8.02;59.08;101207.38;4468048;32;34491;-78
2021/12/15 11:44:15;;;;;;;28.02;17.35;;;;;;;8.08;58.60;101204.91;4467915;32;33434;-83
2021/12/15 11:46:45;;;;;;;28.33;17.02;;;;;;;8.25;58.96;101202.72;4466351;32;34238;-78
2021/12/15 11:49:24;;;;;;;28.73;17.10;;;;;;;8.86;57.17;101197.50;4467905;32;33676;-71
2021/12/15 11:52:05;;;;;;;31.77;16.55;;;;;;;8.95;55.47;101193.56;4467886;32;33533;-76
2021/12/15 11:54:40;;;;;;;28.52;16.30;;;;;;;9.26;55.04;101197.62;4467674;32;34755;-77
2021/12/15 11:57:26;;;;;;;25.48;15.05;;;;;;;9.58;53.54;101189.75;4467946;32;34322;-73
2021/12/15 12:00:05;;;;;;;27.23;16.45;;;;;;;9.40;54.24;101193.91;4467574;32;33700;-69
2021/12/15 12:02:39;;;;;;;26.27;15.35;;;;;;;9.59;53.07;101199.53;4469248;32;33593;-71
2021/12/15 12:05:14;;;;;;;24.87;15.07;;;;;;;9.48;53.75;101190.19;4469870;32;33998;-80
2021/12/15 12:07:53;;;;;;;27.87;15.88;;;;;;;9.30;53.72;101185.34;4480955;32;33795;-72
2021/12/15 12:10:28;;;;;;;22.35;14.70;;;;;;;8.99;55.23;101192.13;4468557;32;34892;-75
2021/12/15 12:13:13;;;;;;;25.60;15.93;;;;;;;9.23;54.61;101190.75;4469364;32;33524;-68
2021/12/15 12:15:44;;;;;;;25.40;14.85;;;;;;;8.99;55.59;101186.72;4469502;32;33974;-73
2021/12/15 12:18:17;;;;;;;25.55;15.25;;;;;;;9.44;53.71;101183.50;4479987;32;34295;-79
2021/12/15 12:20:48;;;;;;;26.55;15.90;;;;;;;9.02;55.27;101183.59;4485104;32;34057;-74
2021/12/15 12:23:22;;;;;;;25.52;16.33;;;;;;;9.05;54.76;101174.25;4485006;32;34533;-72
2021/12/15 12:25:51;;;;;;;;;;;;;;;9.18;54.34;101177.00;4485438;32;34072;-72
2021/12/15 12:28:25;;;;;;;26.85;17.45;;;;;;;8.92;55.19;101176.88;4485748;32;34249;-73
2021/12/15 12:30:57;;;;;;;29.60;18.08;;;;;;;8.80;55.90;101180.19;4485213;32;34769;-74
2021/12/15 12:33:26;;;;;;;26.27;15.57;;;;;;;8.93;55.36;101186.69;4484829;32;33525;-81
2021/12/15 12:36:02;;;;;;;28.25;16.65;;;;;;;9.20;55.02;101179.47;4485119;32;34964;-80
2021/12/15 12:38:31;;;;;;;27.55;17.40;;;;;;;9.39;54.06;101175.16;4484709;32;34145;-75
2021/12/15 12:41:13;;;;;;;25.27;16.08;;;;;;;9.15;54.41;101184.69;4485395;32;35126;-74
2021/12/15 12:43:53;;;;;;;23.77;14.80;;;;;;;9.05;54.84;101195.91;4484660;32;32194;-78
2021/12/15 13:00:51;;;;;;;35.80;18.62;;;;;;;9.00;55.26;101182.97;4441280;32;34875;-71
2021/12/15 13:03:30;;;;;;;28.17;16.40;;;;;;;8.72;55.84;101177.66;4483369;32;34259;-71
2021/12/15 13:06:03;;;;;;;27.55;16.37;;;;;;;8.70;56.05;101170.78;4484487;32;33927;-71
2021/12/15 13:08:45;;;;;;;29.20;15.27;;;;;;;7.70;58.87;101167.41;4496512;31;33874;-72
2021/12/15 13:11:19;;;;;;;25.10;16.15;;;;;;;7.76;59.06;101169.34;4484401;32;34034;-72
2021/12/15 13:14:11;;;;;;;29.27;16.23;;;;;;;7.70;59.74;101165.53;4483604;32;33960;-72